Time;durP1;ratioP1;P1;durP2;ratioP2;P2;SDS_P1;SDS_P2;PMS_P1;PMS_P2;Temp;Humidity;BMP_temperature;BMP_pressure;BME280_temperature;BME280_humidity;BME280_pressure;Samples;Min_cycle;Max_cycle;Signal;HPM_P1;HPM_P2
2020/12/07 00:02:23;;;;;;;2.90;0.27;;;6.10;99.90;;;;;;5071558;28;20244;-85
2020/12/07 00:04:48;;;;;;;0.43;0.43;;;6.20;99.90;;;;;;5087617;28;20191;-84
2020/12/07 00:07:14;;;;;;;0.13;0.13;;;6.20;99.90;;;;;;5083034;28;20198;-84
2020/12/07 00:09:40;;;;;;;0.10;0.10;;;6.20;99.90;;;;;;5079632;28;20777;-85
2020/12/07 00:12:06;;;;;;;3.23;1.73;;;6.20;99.90;;;;;;5083532;28;20214;-84
2020/12/07 00:14:31;;;;;;;0.27;0.27;;;6.20;99.90;;;;;;5089176;28;20183;-84
2020/12/07 00:16:57;;;;;;;0.10;0.10;;;6.20;99.90;;;;;;5076892;28;20248;-84
2020/12/07 00:19:23;;;;;;;0.00;0.00;;;6.20;99.90;;;;;;5079047;28;20223;-84
2020/12/07 00:21:49;;;;;;;0.10;0.10;;;6.30;99.90;;;;;;5079743;28;20203;-85
2020/12/07 00:24:15;;;;;;;0.10;0.10;;;6.20;99.90;;;;;;5078079;28;20173;-84
2020/12/07 00:26:44;;;;;;;0.30;0.10;;;6.20;99.90;;;;;;5076537;28;20188;-85
2020/12/07 00:29:10;;;;;;;0.10;0.10;;;6.30;99.90;;;;;;5077223;28;20185;-85
2020/12/07 00:31:35;;;;;;;0.20;0.20;;;6.20;99.90;;;;;;5076992;28;20274;-85
2020/12/07 00:34:01;;;;;;;0.30;0.23;;;6.30;99.90;;;;;;5076876;28;20188;-84
2020/12/07 00:36:27;;;;;;;0.10;0.10;;;6.20;99.90;;;;;;5075877;28;20242;-84
2020/12/07 00:38:54;;;;;;;0.20;0.20;;;6.30;99.90;;;;;;5076937;28;20206;-85
2020/12/07 00:41:21;;;;;;;0.40;0.40;;;6.20;99.90;;;;;;5075862;28;20206;-84
2020/12/07 00:43:46;;;;;;;0.77;0.57;;;6.20;99.90;;;;;;5075015;28;20518;-84
2020/12/07 00:46:12;;;;;;;0.30;0.30;;;6.20;99.90;;;;;;5075907;28;20190;-85
2020/12/07 00:48:37;;;;;;;0.40;0.40;;;6.10;99.90;;;;;;5074169;28;20179;-84
2020/12/07 00:51:03;;;;;;;0.20;0.20;;;5.90;99.90;;;;;;5073910;28;20252;-84
2020/12/07 00:53:28;;;;;;;0.10;0.10;;;6.10;99.90;;;;;;5074700;28;20249;-85
2020/12/07 00:55:54;;;;;;;0.63;0.63;;;6.20;99.90;;;;;;5073612;28;20173;-84
2020/12/07 00:58:19;;;;;;;0.10;0.10;;;6.20;99.90;;;;;;5073892;28;20253;-84
2020/12/07 01:00:45;;;;;;;0.57;0.30;;;6.20;99.90;;;;;;5070181;28;20705;-84
2020/12/07 01:03:11;;;;;;;0.53;0.23;;;6.30;99.90;;;;;;5072357;28;20556;-85
2020/12/07 01:05:36;;;;;;;0.73;0.37;;;6.30;99.90;;;;;;5075591;28;20188;-84
2020/12/07 01:08:02;;;;;;;0.40;0.30;;;6.30;99.90;;;;;;5072352;28;20185;-84
2020/12/07 01:10:27;;;;;;;0.30;0.30;;;6.30;99.90;;;;;;5072112;28;20312;-87
2020/12/07 01:12:53;;;;;;;0.10;0.10;;;6.10;99.90;;;;;;5072252;28;20264;-84
2020/12/07 01:15:18;;;;;;;0.40;0.40;;;6.00;99.90;;;;;;5072375;28;20200;-85
2020/12/07 01:17:44;;;;;;;0.47;0.47;;;6.10;99.90;;;;;;5072087;28;20204;-84
2020/12/07 01:20:09;;;;;;;0.10;0.10;;;6.10;99.90;;;;;;5072086;28;20213;-85
2020/12/07 01:22:35;;;;;;;0.37;0.23;;;6.20;99.90;;;;;;5073348;28;20235;-85
2020/12/07 01:25:01;;;;;;;0.60;0.60;;;6.20;99.90;;;;;;5060147;28;20582;-84
2020/12/07 01:27:26;;;;;;;0.40;0.40;;;6.20;99.90;;;;;;5074537;28;20216;-85
2020/12/07 01:29:52;;;;;;;0.10;0.10;;;6.20;99.90;;;;;;5074219;28;20212;-84
2020/12/07 01:32:17;;;;;;;1.73;0.43;;;6.10;99.90;;;;;;5065890;28;20181;-84
2020/12/07 01:34:43;;;;;;;1.87;0.43;;;5.90;99.90;;;;;;5074270;28;20183;-84
2020/12/07 01:37:08;;;;;;;1.73;0.50;;;5.90;99.90;;;;;;5073870;28;20776;-84
2020/12/07 01:39:34;;;;;;;0.17;0.17;;;6.10;99.90;;;;;;5074283;28;20204;-85
2020/12/07 01:42:00;;;;;;;0.60;0.60;;;6.10;99.90;;;;;;5074480;28;20188;-85
2020/12/07 01:44:25;;;;;;;0.10;0.10;;;6.20;99.90;;;;;;5075669;28;20179;-84
2020/12/07 01:46:51;;;;;;;0.40;0.40;;;6.30;99.90;;;;;;5073788;28;20213;-84
2020/12/07 01:49:17;;;;;;;0.07;0.07;;;6.30;99.90;;;;;;5074117;28;20231;-85
2020/12/07 01:51:42;;;;;;;0.17;0.17;;;6.30;99.90;;;;;;5071589;28;20176;-85
2020/12/07 01:54:08;;;;;;;0.80;0.30;;;6.30;99.90;;;;;;5069386;28;20640;-85
2020/12/07 01:56:37;;;;;;;1.90;0.43;;;6.30;99.90;;;;;;5075034;28;20174;-85
2020/12/07 01:59:03;;;;;;;0.10;0.10;;;6.30;99.90;;;;;;5074223;28;20222;-85
2020/12/07 02:01:30;;;;;;;0.30;0.30;;;6.20;99.90;;;;;;5068459;28;20197;-84
2020/12/07 02:03:56;;;;;;;0.20;0.20;;;6.20;99.90;;;;;;5074990;28;20546;-84
2020/12/07 02:06:22;;;;;;;0.23;0.20;;;6.20;99.90;;;;;;5073373;28;20188;-85
2020/12/07 02:08:49;;;;;;;0.10;0.10;;;6.20;99.90;;;;;;5074707;28;20681;-85
2020/12/07 02:11:15;;;;;;;0.10;0.10;;;6.20;99.90;;;;;;5074205;28;20194;-84
2020/12/07 02:13:41;;;;;;;0.33;0.33;;;6.20;99.90;;;;;;5073948;28;20187;-85
2020/12/07 02:16:06;;;;;;;0.10;0.10;;;6.20;99.90;;;;;;5073669;28;20187;-85
2020/12/07 02:18:32;;;;;;;0.20;0.20;;;6.20;99.90;;;;;;5073966;28;20204;-85
2020/12/07 02:20:57;;;;;;;0.27;0.07;;;6.20;99.90;;;;;;5072555;28;20216;-85
2020/12/07 02:23:23;;;;;;;0.20;0.20;;;6.20;99.90;;;;;;5072029;28;20196;-84
2020/12/07 02:25:48;;;;;;;0.30;0.30;;;6.20;99.90;;;;;;5072148;28;20214;-85
2020/12/07 02:28:14;;;;;;;1.07;0.60;;;6.30;99.90;;;;;;5063639;28;20231;-85
2020/12/07 02:30:39;;;;;;;0.30;0.30;;;6.30;99.90;;;;;;5066762;28;20203;-84
2020/12/07 02:33:05;;;;;;;0.30;0.30;;;6.30;99.90;;;;;;5074214;28;20734;-85
2020/12/07 02:35:30;;;;;;;0.20;0.20;;;6.30;99.90;;;;;;5073344;28;20231;-85
2020/12/07 02:37:56;;;;;;;0.17;0.17;;;6.30;99.90;;;;;;5071126;28;20221;-85
2020/12/07 02:40:22;;;;;;;0.10;0.10;;;6.30;99.90;;;;;;5073100;28;20419;-84
2020/12/07 02:42:47;;;;;;;0.10;0.10;;;6.30;99.90;;;;;;5071276;28;20247;-84
2020/12/07 02:45:15;;;;;;;0.20;0.20;;;6.20;99.90;;;;;;5072239;28;20228;-84
2020/12/07 02:47:41;;;;;;;1.13;0.20;;;6.20;99.90;;;;;;5073586;28;20661;-85
2020/12/07 02:50:08;;;;;;;0.57;0.43;;;6.20;99.90;;;;;;5072192;28;20215;-84
2020/12/07 02:52:34;;;;;;;0.33;0.27;;;6.10;99.90;;;;;;5071382;28;20188;-85
2020/12/07 02:55:02;;;;;;;2.77;0.33;;;6.10;99.90;;;;;;5073546;28;20219;-85
2020/12/07 02:57:28;;;;;;;0.23;0.23;;;6.20;99.90;;;;;;5071159;28;20222;-85
2020/12/07 02:59:54;;;;;;;0.20;0.20;;;6.10;99.90;;;;;;5071612;28;20228;-85
2020/12/07 03:02:20;;;;;;;0.43;0.43;;;6.20;99.90;;;;;;5072608;28;20235;-85
2020/12/07 03:04:46;;;;;;;0.10;0.10;;;6.10;99.90;;;;;;5073221;28;20173;-85
2020/12/07 03:07:12;;;;;;;0.67;0.67;;;6.20;99.90;;;;;;5065518;28;20182;-84
2020/12/07 03:09:38;;;;;;;0.13;0.13;;;6.10;99.90;;;;;;5072262;28;20702;-85
2020/12/07 03:12:05;;;;;;;0.27;0.27;;;6.10;99.90;;;;;;5072253;28;20183;-85
2020/12/07 03:14:31;;;;;;;0.20;0.20;;;6.10;99.90;;;;;;5071881;28;20274;-85
2020/12/07 03:16:57;;;;;;;2.93;0.20;;;6.20;99.90;;;;;;5071302;28;20312;-85
2020/12/07 03:19:22;;;;;;;0.20;0.20;;;6.20;99.90;;;;;;5082901;28;20243;-86
2020/12/07 03:21:48;;;;;;;0.30;0.30;;;6.30;99.90;;;;;;5084985;28;20193;-86
2020/12/07 03:24:14;;;;;;;0.30;0.30;;;6.30;99.90;;;;;;5080638;28;20230;-85
2020/12/07 03:26:39;;;;;;;0.30;0.30;;;6.30;99.90;;;;;;5066949;28;20442;-84
2020/12/07 03:29:06;;;;;;;0.43;0.43;;;6.20;99.90;;;;;;5079979;28;20186;-84
2020/12/07 03:31:34;;;;;;;0.10;0.10;;;6.20;99.90;;;;;;5079339;28;20631;-84
2020/12/07 03:34:00;;;;;;;0.27;0.27;;;6.20;99.90;;;;;;5079790;28;20184;-84
2020/12/07 03:36:27;;;;;;;0.30;0.30;;;6.20;99.90;;;;;;5079394;28;20564;-84
2020/12/07 03:38:52;;;;;;;0.47;0.47;;;6.20;99.90;;;;;;5077274;28;20211;-84
2020/12/07 03:41:18;;;;;;;0.10;0.10;;;6.20;99.90;;;;;;5079332;28;20261;-84
2020/12/07 03:43:44;;;;;;;0.10;0.10;;;6.20;99.90;;;;;;5079070;28;20588;-84
2020/12/07 03:46:10;;;;;;;0.10;0.10;;;6.20;99.90;;;;;;5077467;28;20279;-84
2020/12/07 03:48:36;;;;;;;0.83;0.57;;;6.20;99.90;;;;;;5078642;28;20219;-84
2020/12/07 03:51:01;;;;;;;0.10;0.10;;;6.20;99.90;;;;;;5077257;28;20231;-84
2020/12/07 03:53:32;;;;;;;0.10;0.10;;;6.20;99.90;;;;;;5075008;28;20192;-84
2020/12/07 03:55:58;;;;;;;0.10;0.10;;;6.20;99.90;;;;;;5077126;28;20293;-85
2020/12/07 03:58:23;;;;;;;0.37;0.20;;;6.10;99.90;;;;;;5073826;28;20205;-84
2020/12/07 04:00:49;;;;;;;0.30;0.30;;;6.10;99.90;;;;;;5078209;28;20296;-85
2020/12/07 04:03:15;;;;;;;0.43;0.40;;;6.10;99.90;;;;;;5077169;28;20188;-84
2020/12/07 04:05:44;;;;;;;0.10;0.10;;;6.20;99.90;;;;;;5074936;28;20180;-84
2020/12/07 04:08:10;;;;;;;0.10;0.10;;;6.20;99.90;;;;;;5076887;28;20186;-85
2020/12/07 04:10:37;;;;;;;0.27;0.27;;;6.20;99.90;;;;;;5074724;28;20285;-84
2020/12/07 04:13:03;;;;;;;0.20;0.20;;;6.20;99.90;;;;;;5083194;28;20178;-84
2020/12/07 04:15:28;;;;;;;0.20;0.20;;;6.30;99.90;;;;;;5075004;28;20193;-85
2020/12/07 04:17:54;;;;;;;0.10;0.10;;;6.30;99.90;;;;;;5075253;28;20300;-84
2020/12/07 04:20:19;;;;;;;0.30;0.30;;;6.30;99.90;;;;;;5073893;28;20248;-84
2020/12/07 04:22:45;;;;;;;1.50;0.37;;;6.30;99.90;;;;;;5075445;28;20176;-85
2020/12/07 04:25:11;;;;;;;0.27;0.23;;;6.40;99.90;;;;;;5074684;28;20184;-85
2020/12/07 04:27:36;;;;;;;0.37;0.37;;;6.30;99.90;;;;;;5070233;28;20192;-84
2020/12/07 04:30:04;;;;;;;0.40;0.40;;;6.30;99.90;;;;;;5070410;28;20295;-84
2020/12/07 04:32:30;;;;;;;1.83;0.40;;;6.20;99.90;;;;;;5063836;28;20302;-85
2020/12/07 04:34:55;;;;;;;0.40;0.40;;;6.20;99.90;;;;;;5073349;28;20255;-85
2020/12/07 04:37:21;;;;;;;0.17;0.17;;;6.10;99.90;;;;;;5072544;28;20204;-84
2020/12/07 04:39:46;;;;;;;0.10;0.10;;;6.20;99.90;;;;;;5073010;28;20237;-84
2020/12/07 04:42:13;;;;;;;0.53;0.53;;;6.10;99.90;;;;;;5073287;28;20188;-85
2020/12/07 04:44:38;;;;;;;1.60;0.30;;;6.10;99.90;;;;;;5074487;28;20192;-84
2020/12/07 04:47:04;;;;;;;0.93;0.70;;;6.10;99.90;;;;;;5073308;28;20198;-85
2020/12/07 04:49:31;;;;;;;0.97;0.50;;;6.10;99.90;;;;;;5073691;28;20290;-84
2020/12/07 04:51:57;;;;;;;0.40;0.20;;;6.10;99.90;;;;;;5072195;28;20650;-85
2020/12/07 04:54:25;;;;;;;0.30;0.30;;;6.20;99.90;;;;;;5072680;28;20182;-85
2020/12/07 04:56:52;;;;;;;0.10;0.07;;;6.20;99.90;;;;;;5072516;28;20188;-84
2020/12/07 04:59:19;;;;;;;0.27;0.20;;;6.20;99.90;;;;;;5072029;28;20214;-85
2020/12/07 05:01:45;;;;;;;0.50;0.40;;;6.10;99.90;;;;;;5072490;28;20275;-86
2020/12/07 05:04:10;;;;;;;0.20;0.20;;;6.20;99.90;;;;;;5077278;28;20310;-85
2020/12/07 05:06:36;;;;;;;0.33;0.33;;;6.20;99.90;;;;;;5072521;28;20184;-84
2020/12/07 05:09:02;;;;;;;0.10;0.10;;;6.30;99.90;;;;;;5074681;28;20606;-84
2020/12/07 05:11:28;;;;;;;0.60;0.60;;;6.30;99.90;;;;;;5075216;28;20561;-84
2020/12/07 05:14:02;;;;;;;0.30;0.30;;;6.30;99.90;;;;;;5070821;28;20848;-85
2020/12/07 05:16:29;;;;;;;0.50;0.50;;;6.20;99.90;;;;;;5066942;28;20205;-84
2020/12/07 05:18:54;;;;;;;0.13;0.13;;;6.20;99.90;;;;;;5074029;28;20208;-83
2020/12/07 05:21:20;;;;;;;0.90;0.20;;;6.10;99.90;;;;;;5071193;28;20673;-84
2020/12/07 05:23:53;;;;;;;0.10;0.10;;;6.10;99.90;;;;;;5072965;28;20190;-84
2020/12/07 05:26:21;;;;;;;0.13;0.13;;;6.10;99.90;;;;;;5073075;28;20192;-84
2020/12/07 05:28:50;;;;;;;0.10;0.10;;;6.10;99.90;;;;;;5074148;28;20251;-83
2020/12/07 05:31:23;;;;;;;0.20;0.20;;;6.10;99.90;;;;;;5072108;28;21360;-84
2020/12/07 05:33:49;;;;;;;0.73;0.73;;;6.10;99.90;;;;;;5065666;28;20806;-84
2020/12/07 05:36:16;;;;;;;0.73;0.40;;;6.10;99.90;;;;;;5070438;28;20250;-82
2020/12/07 05:38:43;;;;;;;0.40;0.40;;;6.10;99.90;;;;;;5065759;28;20210;-84
2020/12/07 05:41:10;;;;;;;1.13;0.40;;;6.10;99.90;;;;;;5072726;28;20199;-84
2020/12/07 05:43:38;;;;;;;0.10;0.10;;;6.20;99.90;;;;;;5070891;28;20213;-84
2020/12/07 05:46:05;;;;;;;0.13;0.13;;;6.20;99.90;;;;;;5074182;28;20218;-84
2020/12/07 05:48:33;;;;;;;0.10;0.10;;;6.20;99.90;;;;;;5071147;28;20199;-84
2020/12/07 05:51:03;;;;;;;0.30;0.30;;;6.20;99.90;;;;;;5072762;28;20637;-85
2020/12/07 05:53:34;;;;;;;1.20;0.87;;;6.20;99.90;;;;;;5073980;28;20185;-84
2020/12/07 05:56:02;;;;;;;0.10;0.10;;;6.20;99.90;;;;;;5074336;28;20188;-84
2020/12/07 05:58:30;;;;;;;0.40;0.40;;;6.20;99.90;;;;;;5062450;28;20217;-86
2020/12/07 06:01:01;;;;;;;0.10;0.10;;;6.20;99.90;;;;;;5069711;28;20700;-84
2020/12/07 06:03:28;;;;;;;0.30;0.30;;;6.30;99.90;;;;;;5074072;28;20179;-84
2020/12/07 06:05:54;;;;;;;0.30;0.30;;;6.20;99.90;;;;;;5088193;28;20201;-85
2020/12/07 06:08:31;;;;;;;2.13;0.37;;;6.30;99.90;;;;;;5070533;28;20298;-83
2020/12/07 06:11:03;;;;;;;0.20;0.20;;;6.30;99.90;;;;;;5086949;28;20208;-83
2020/12/07 06:13:30;;;;;;;0.20;0.20;;;6.30;99.90;;;;;;5066444;28;20275;-84
2020/12/07 06:15:57;;;;;;;0.27;0.27;;;6.40;99.90;;;;;;5069586;28;20198;-83
2020/12/07 06:18:54;;;;;;;0.10;0.10;;;6.30;99.90;;;;;;5068705;28;20244;-83
2020/12/07 06:21:19;;;;;;;0.30;0.30;;;6.30;99.90;;;;;;5066127;28;20814;-83
2020/12/07 06:23:47;;;;;;;0.40;0.40;;;6.30;99.90;;;;;;5067677;28;20187;-85
2020/12/07 06:26:18;;;;;;;0.10;0.10;;;6.20;99.90;;;;;;5066143;28;20192;-85
2020/12/07 06:28:46;;;;;;;0.57;0.30;;;6.30;99.90;;;;;;5067948;28;20178;-85
2020/12/07 06:31:17;;;;;;;0.40;0.40;;;6.20;99.90;;;;;;5062876;28;20205;-84
2020/12/07 06:33:48;;;;;;;0.17;0.17;;;6.20;99.90;;;;;;5066664;28;20192;-84
2020/12/07 06:36:27;;;;;;;0.43;0.43;;;6.20;99.90;;;;;;5088366;28;20287;-83
2020/12/07 06:38:58;;;;;;;0.40;0.40;;;6.20;99.90;;;;;;5079449;28;20234;-85
2020/12/07 06:41:37;;;;;;;0.23;0.23;;;6.10;99.90;;;;;;5078172;28;20210;-83
2020/12/07 06:44:10;;;;;;;0.30;0.30;;;6.20;99.90;;;;;;5083010;28;20188;-84
2020/12/07 06:47:00;;;;;;;0.40;0.30;;;6.10;99.90;;;;;;5080566;28;20180;-84
2020/12/07 06:49:48;;;;;;;0.10;0.10;;;6.10;99.90;;;;;;5077638;28;20747;-85
2020/12/07 06:52:17;;;;;;;0.17;0.13;;;6.10;99.90;;;;;;5072143;28;20266;-85
2020/12/07 06:55:08;;;;;;;0.10;0.10;;;6.10;99.90;;;;;;5076355;28;20266;-84
2020/12/07 06:57:42;;;;;;;0.87;0.33;;;6.10;99.90;;;;;;5075257;28;20211;-85
2020/12/07 07:00:11;;;;;;;0.13;0.13;;;6.10;99.90;;;;;;5078958;28;20229;-85
2020/12/07 07:02:48;;;;;;;0.10;0.10;;;6.10;99.90;;;;;;5078029;28;20180;-85
2020/12/07 07:05:19;;;;;;;0.10;0.10;;;6.10;99.90;;;;;;5073612;28;20189;-83
2020/12/07 07:07:45;;;;;;;0.10;0.10;;;6.10;99.90;;;;;;5072489;28;20189;-84
2020/12/07 07:10:12;;;;;;;0.33;0.33;;;6.00;99.90;;;;;;5074468;28;20765;-83
2020/12/07 07:12:39;;;;;;;0.53;0.30;;;6.10;99.90;;;;;;5063408;28;20178;-83
2020/12/07 07:15:06;;;;;;;0.30;0.20;;;6.20;99.90;;;;;;5072683;28;20266;-83
2020/12/07 07:17:38;;;;;;;0.13;0.13;;;6.20;99.90;;;;;;5071676;28;20206;-83
2020/12/07 07:20:07;;;;;;;0.20;0.20;;;6.20;99.90;;;;;;5074706;28;20285;-83
2020/12/07 07:22:35;;;;;;;0.23;0.23;;;6.20;99.90;;;;;;5072716;28;20219;-83
2020/12/07 07:25:23;;;;;;;2.20;0.80;;;6.20;99.90;;;;;;5069138;28;20188;-82
2020/12/07 07:28:06;;;;;;;0.67;0.67;;;6.20;99.90;;;;;;5071222;28;20189;-82
2020/12/07 07:30:33;;;;;;;0.63;0.40;;;6.10;99.90;;;;;;5071693;28;20202;-84
2020/12/07 07:32:59;;;;;;;0.70;0.33;;;6.10;99.90;;;;;;5071754;28;20192;-83
2020/12/07 07:35:27;;;;;;;0.10;0.10;;;6.10;99.90;;;;;;5071012;28;20188;-82
2020/12/07 07:37:53;;;;;;;0.73;0.73;;;6.00;99.90;;;;;;5067365;28;20204;-83
2020/12/07 07:40:21;;;;;;;0.20;0.20;;;6.10;99.90;;;;;;5070909;28;20205;-83
2020/12/07 07:42:50;;;;;;;0.33;0.33;;;6.00;99.90;;;;;;5071396;28;20188;-84
2020/12/07 07:45:21;;;;;;;0.47;0.47;;;6.10;99.90;;;;;;5068102;28;20185;-83
2020/12/07 07:48:03;;;;;;;0.47;0.30;;;6.10;99.90;;;;;;5072086;28;20241;-83
2020/12/07 08:15:54;;;;;;;0.47;0.20;;;6.20;99.90;;;;;;5063841;28;20411;-81
2020/12/07 08:18:33;;;;;;;0.30;0.30;;;6.20;99.90;;;;;;5066619;28;20219;-81
2020/12/07 08:21:02;;;;;;;0.20;0.20;;;6.20;99.90;;;;;;5065065;28;20594;-82
2020/12/07 08:23:33;;;;;;;0.20;0.20;;;6.20;99.90;;;;;;5069485;28;20191;-81
2020/12/07 08:26:03;;;;;;;0.40;0.40;;;6.20;99.90;;;;;;5070433;28;20194;-81
2020/12/07 08:28:35;;;;;;;0.47;0.47;;;6.20;99.90;;;;;;5070157;28;20186;-82
2020/12/07 08:31:03;;;;;;;0.40;0.40;;;6.30;99.90;;;;;;5059483;28;20208;-82
2020/12/07 08:33:30;;;;;;;0.33;0.27;;;6.30;99.90;;;;;;5069394;28;20214;-81
2020/12/07 08:35:57;;;;;;;0.10;0.10;;;6.30;99.90;;;;;;5064666;28;20553;-82
2020/12/07 08:38:24;;;;;;;0.60;0.40;;;6.40;99.90;;;;;;5075323;28;20283;-81
2020/12/07 08:40:50;;;;;;;0.20;0.20;;;6.40;99.90;;;;;;5072165;28;20593;-82
2020/12/07 08:43:15;;;;;;;0.30;0.30;;;6.40;99.90;;;;;;5074172;28;20179;-82
2020/12/07 08:45:45;;;;;;;0.50;0.50;;;6.40;99.90;;;;;;5074473;28;20215;-82
2020/12/07 08:48:11;;;;;;;0.20;0.20;;;6.40;99.90;;;;;;5077632;28;20537;-81
2020/12/07 08:50:36;;;;;;;0.20;0.20;;;6.30;99.90;;;;;;5072144;28;20250;-85
2020/12/07 08:53:02;;;;;;;0.90;0.50;;;6.40;99.90;;;;;;5066937;28;20189;-82
2020/12/07 08:55:28;;;;;;;0.40;0.20;;;6.30;99.90;;;;;;5074077;28;20195;-81
2020/12/07 08:57:53;;;;;;;1.17;0.20;;;6.40;99.90;;;;;;5069679;28;20571;-81
2020/12/07 09:00:19;;;;;;;0.33;0.33;;;6.40;99.90;;;;;;5072608;28;20200;-81
2020/12/07 09:02:44;;;;;;;0.40;0.40;;;6.40;99.90;;;;;;5075360;28;20183;-82
2020/12/07 09:05:10;;;;;;;2.10;1.37;;;6.40;99.90;;;;;;5074186;28;20892;-82
2020/12/07 09:07:35;;;;;;;0.27;0.27;;;6.40;99.90;;;;;;5073291;28;20197;-81
2020/12/07 09:10:01;;;;;;;0.30;0.30;;;6.40;99.90;;;;;;5070520;28;20218;-81
2020/12/07 09:12:26;;;;;;;0.23;0.23;;;6.40;99.90;;;;;;5074192;28;20190;-82
2020/12/07 09:14:52;;;;;;;0.20;0.20;;;6.40;99.90;;;;;;5075877;28;20297;-81
2020/12/07 09:17:17;;;;;;;0.50;0.50;;;6.40;99.90;;;;;;5075736;28;20185;-81
2020/12/07 09:19:43;;;;;;;0.37;0.37;;;6.30;99.90;;;;;;5073087;28;20212;-82
2020/12/07 09:22:09;;;;;;;0.93;0.43;;;6.40;99.90;;;;;;5070184;28;20652;-82
2020/12/07 09:24:34;;;;;;;0.47;0.37;;;6.40;99.90;;;;;;5070436;28;20172;-81
2020/12/07 09:27:00;;;;;;;0.60;0.40;;;6.60;99.90;;;;;;5074313;28;20189;-81
2020/12/07 09:29:26;;;;;;;0.53;0.50;;;6.70;99.90;;;;;;5071123;28;20269;-83
2020/12/07 09:31:51;;;;;;;0.20;0.20;;;6.70;99.90;;;;;;5074179;28;20195;-83
2020/12/07 09:34:17;;;;;;;0.67;0.67;;;6.80;99.90;;;;;;5073549;28;20192;-85
2020/12/07 09:36:44;;;;;;;0.43;0.43;;;6.60;99.90;;;;;;5076747;28;20274;-85
2020/12/07 09:39:10;;;;;;;0.90;0.27;;;6.60;99.90;;;;;;5071711;28;20219;-84
2020/12/07 09:41:36;;;;;;;0.70;0.30;;;6.50;99.90;;;;;;5075304;28;20199;-85
2020/12/07 09:44:02;;;;;;;0.30;0.30;;;6.50;99.90;;;;;;5074027;28;20191;-85
2020/12/07 09:46:28;;;;;;;0.30;0.30;;;6.50;99.90;;;;;;5075473;28;20185;-85
2020/12/07 09:48:53;;;;;;;0.30;0.30;;;6.60;99.90;;;;;;5074805;28;20180;-86
2020/12/07 09:51:19;;;;;;;0.97;0.67;;;6.70;99.90;;;;;;5079776;28;20237;-85
2020/12/07 09:53:44;;;;;;;0.20;0.20;;;6.80;99.90;;;;;;5084721;28;20660;-84
2020/12/07 09:56:10;;;;;;;0.40;0.40;;;6.90;99.90;;;;;;5077199;28;20193;-83
2020/12/07 09:58:36;;;;;;;2.13;0.37;;;7.00;99.90;;;;;;5074062;28;20216;-84
2020/12/07 10:01:02;;;;;;;0.20;0.20;;;7.00;99.90;;;;;;5078832;28;20570;-83
2020/12/07 10:03:28;;;;;;;0.20;0.20;;;7.20;99.90;;;;;;5075367;28;20198;-82
2020/12/07 10:05:53;;;;;;;0.53;0.47;;;7.30;99.90;;;;;;5075699;28;20669;-83
2020/12/07 10:08:19;;;;;;;0.87;0.87;;;7.40;99.90;;;;;;5069930;28;20195;-82
2020/12/07 10:10:47;;;;;;;0.67;0.67;;;7.40;99.90;;;;;;5072033;28;20200;-83
2020/12/07 10:13:12;;;;;;;0.57;0.50;;;7.50;99.90;;;;;;5076834;28;20275;-84
2020/12/07 10:15:38;;;;;;;0.67;0.60;;;7.50;99.90;;;;;;5076576;28;20410;-83
2020/12/07 10:18:03;;;;;;;0.47;0.47;;;7.60;99.90;;;;;;5076307;28;20235;-84
2020/12/07 10:20:29;;;;;;;1.23;0.23;;;7.50;99.90;;;;;;5072720;28;20218;-83
2020/12/07 10:22:55;;;;;;;0.47;0.47;;;7.70;99.90;;;;;;5076318;28;20185;-83
2020/12/07 10:25:20;;;;;;;0.23;0.20;;;7.70;99.90;;;;;;5077084;28;20213;-83
2020/12/07 10:27:46;;;;;;;0.37;0.37;;;7.80;99.90;;;;;;5076110;28;20187;-83
2020/12/07 10:30:11;;;;;;;0.07;0.07;;;7.90;99.90;;;;;;5073229;28;20203;-83
2020/12/07 10:32:37;;;;;;;4.13;0.60;;;8.00;99.90;;;;;;5070520;28;20291;-84
2020/12/07 10:35:02;;;;;;;0.67;0.33;;;8.10;99.90;;;;;;5062791;28;20203;-83
2020/12/07 10:37:28;;;;;;;0.70;0.70;;;8.20;99.90;;;;;;5073035;28;20188;-83
2020/12/07 10:39:54;;;;;;;0.10;0.10;;;8.30;99.90;;;;;;5069881;28;20230;-85
2020/12/07 10:42:20;;;;;;;1.50;0.90;;;8.50;99.90;;;;;;5068203;28;20641;-85
2020/12/07 10:44:45;;;;;;;0.73;0.70;;;8.50;99.90;;;;;;5070964;28;20181;-84
2020/12/07 10:47:11;;;;;;;0.10;0.10;;;8.70;99.90;;;;;;5073417;28;20186;-85
2020/12/07 10:49:36;;;;;;;0.20;0.20;;;9.10;99.90;;;;;;5072487;28;20208;-85
2020/12/07 10:52:02;;;;;;;0.37;0.37;;;9.30;99.90;;;;;;5074046;28;20784;-85
2020/12/07 10:54:27;;;;;;;0.03;0.03;;;9.20;99.90;;;;;;5070602;28;20763;-84
2020/12/07 10:56:53;;;;;;;0.73;0.50;;;9.30;99.90;;;;;;5070517;28;20268;-83
2020/12/07 10:59:19;;;;;;;0.53;0.53;;;9.30;99.90;;;;;;5060653;28;20220;-85
2020/12/07 11:01:44;;;;;;;0.20;0.20;;;9.30;99.90;;;;;;5076306;28;20275;-84
2020/12/07 11:04:10;;;;;;;0.43;0.13;;;9.40;99.90;;;;;;5072781;28;20200;-84
2020/12/07 11:06:41;;;;;;;0.10;0.10;;;9.40;99.90;;;;;;5070255;28;20189;-84
2020/12/07 11:09:09;;;;;;;0.47;0.47;;;9.30;99.90;;;;;;5072168;28;20668;-85
2020/12/07 11:11:34;;;;;;;0.10;0.10;;;9.20;99.90;;;;;;5072514;28;20656;-85
2020/12/07 11:14:01;;;;;;;0.43;0.43;;;9.10;99.90;;;;;;5075499;28;20200;-86
2020/12/07 11:16:27;;;;;;;0.40;0.40;;;9.20;99.90;;;;;;5073865;28;20214;-87
2020/12/07 11:18:52;;;;;;;0.30;0.30;;;9.30;99.90;;;;;;5074972;28;20236;-86
2020/12/07 11:21:18;;;;;;;0.30;0.20;;;9.30;99.90;;;;;;5070416;28;20642;-86
2020/12/07 11:23:47;;;;;;;0.17;0.17;;;9.20;99.90;;;;;;5072223;28;20259;-86
2020/12/07 11:26:14;;;;;;;0.27;0.27;;;9.10;99.90;;;;;;5073633;28;20188;-86
2020/12/07 11:28:40;;;;;;;0.20;0.20;;;9.00;99.90;;;;;;5074179;28;20204;-87
2020/12/07 11:31:08;;;;;;;0.70;0.70;;;8.80;99.90;;;;;;5070810;28;20597;-86
2020/12/07 11:33:34;;;;;;;0.90;0.90;;;8.70;99.90;;;;;;5074645;28;20181;-86
2020/12/07 11:36:01;;;;;;;0.63;0.63;;;8.70;99.90;;;;;;5073378;28;20213;-86
2020/12/07 11:38:30;;;;;;;0.17;0.17;;;8.50;99.90;;;;;;5069392;28;20208;-85
2020/12/07 11:46:33;;;;;;;0.10;0.10;;;8.30;99.90;;;;;;5073100;28;20695;-86
2020/12/07 11:49:04;;;;;;;0.63;0.57;;;8.20;99.90;;;;;;5081438;28;20184;-87
2020/12/07 11:51:29;;;;;;;0.30;0.30;;;8.20;99.90;;;;;;5069257;28;20662;-86
2020/12/07 11:53:55;;;;;;;0.60;0.17;;;8.20;99.90;;;;;;5071417;28;20181;-85
2020/12/07 11:56:35;;;;;;;1.73;0.67;;;8.10;99.90;;;;;;5069425;28;20200;-86
2020/12/07 11:59:01;;;;;;;0.57;0.57;;;8.00;99.90;;;;;;5063975;28;20236;-85
2020/12/07 12:01:30;;;;;;;0.30;0.30;;;8.00;99.90;;;;;;5067505;28;20177;-86
2020/12/07 12:03:57;;;;;;;0.40;0.40;;;7.90;99.90;;;;;;5065442;28;20192;-85
2020/12/07 12:06:24;;;;;;;0.27;0.27;;;7.90;99.90;;;;;;5064440;28;20268;-86
2020/12/07 12:08:51;;;;;;;0.43;0.30;;;7.80;99.90;;;;;;5069747;28;20250;-85
2020/12/07 12:11:18;;;;;;;0.27;0.27;;;7.70;99.90;;;;;;5067165;28;20209;-86
2020/12/07 12:13:44;;;;;;;0.53;0.20;;;7.70;99.90;;;;;;5082149;28;20193;-84
2020/12/07 12:16:10;;;;;;;0.10;0.10;;;7.60;99.90;;;;;;5069555;28;20676;-86
2020/12/07 12:18:37;;;;;;;0.20;0.20;;;7.70;99.90;;;;;;5070185;28;20715;-85
2020/12/07 12:21:04;;;;;;;0.93;0.60;;;7.70;99.90;;;;;;5069022;28;20612;-86
2020/12/07 12:23:29;;;;;;;0.80;0.80;;;7.70;99.90;;;;;;5064167;28;20180;-86
2020/12/07 12:25:55;;;;;;;0.20;0.20;;;7.70;99.90;;;;;;5064207;28;20647;-85
2020/12/07 12:28:20;;;;;;;0.40;0.40;;;7.80;99.90;;;;;;5063414;28;20188;-86
2020/12/07 12:30:46;;;;;;;0.40;0.40;;;7.80;99.90;;;;;;5066112;28;20203;-86
2020/12/07 12:33:11;;;;;;;0.20;0.20;;;7.90;99.90;;;;;;5071338;28;20188;-86
2020/12/07 12:35:37;;;;;;;0.93;0.53;;;7.90;99.90;;;;;;5069054;28;20219;-87
2020/12/07 12:38:03;;;;;;;0.20;0.20;;;7.80;99.90;;;;;;5068859;28;20219;-86
2020/12/07 12:40:29;;;;;;;0.17;0.17;;;7.70;99.90;;;;;;5072534;28;20347;-86
2020/12/07 12:42:55;;;;;;;0.17;0.13;;;7.70;99.90;;;;;;5069456;28;20215;-86
2020/12/07 12:45:21;;;;;;;0.60;0.60;;;7.60;99.90;;;;;;5067993;28;20209;-87
2020/12/07 12:47:46;;;;;;;0.50;0.50;;;7.70;99.90;;;;;;5069911;28;20188;-86
2020/12/07 12:50:13;;;;;;;0.43;0.43;;;7.70;99.90;;;;;;5069867;28;20213;-86
2020/12/07 12:52:39;;;;;;;0.20;0.20;;;7.60;99.90;;;;;;5070801;28;20185;-86
2020/12/07 12:55:05;;;;;;;0.47;0.30;;;7.60;99.90;;;;;;5069256;28;20238;-86
2020/12/07 12:57:33;;;;;;;0.10;0.10;;;7.60;99.90;;;;;;5070061;28;20190;-86
2020/12/07 12:59:58;;;;;;;0.10;0.10;;;7.60;99.90;;;;;;5068483;28;20248;-86
2020/12/07 13:02:24;;;;;;;0.10;0.10;;;7.70;99.90;;;;;;5070193;28;20216;-85
2020/12/07 13:04:49;;;;;;;0.40;0.30;;;7.60;99.90;;;;;;5068540;28;20185;-85
2020/12/07 13:07:15;;;;;;;0.10;0.10;;;7.60;99.90;;;;;;5080589;28;20177;-86
2020/12/07 13:09:41;;;;;;;0.23;0.17;;;7.60;99.90;;;;;;5082800;28;20228;-87
2020/12/07 13:12:06;;;;;;;0.30;0.30;;;7.70;99.90;;;;;;5080994;28;20193;-85
2020/12/07 13:14:32;;;;;;;0.33;0.33;;;7.60;99.90;;;;;;5080038;28;20185;-86
2020/12/07 13:17:03;;;;;;;0.40;0.40;;;7.60;99.90;;;;;;5074858;28;20192;-84
2020/12/07 13:19:30;;;;;;;0.23;0.23;;;7.70;99.90;;;;;;5076779;28;20215;-87
2020/12/07 13:29:47;;;;;;;0.30;0.30;;;7.50;99.90;;;;;;5069798;28;20207;-85
2020/12/07 13:32:14;;;;;;;0.47;0.20;;;7.40;99.90;;;;;;5077160;28;20209;-84
2020/12/07 13:34:39;;;;;;;0.17;0.13;;;7.40;99.90;;;;;;5070085;28;20185;-84
2020/12/07 13:37:05;;;;;;;0.63;0.20;;;7.40;99.90;;;;;;5068842;28;20245;-84